Time;durP1;ratioP1;P1;durP2;ratioP2;P2;SDS_P1;SDS_P2;PMS_P1;PMS_P2;Temp;Humidity;BMP_temperature;BMP_pressure;BME280_temperature;BME280_humidity;BME280_pressure;Samples;Min_cycle;Max_cycle;Signal;HPM_P1;HPM_P2
2022/11/19 00:01:16;;;;;;;2.70;1.62;;;;;;;10.75;87.59;97396.52;1824683;78;22147;-80
2022/11/19 00:03:44;;;;;;;13.50;2.50;;;;;;;10.75;87.60;97405.14;1826447;78;21982;-79
2022/11/19 00:06:15;;;;;;;3.33;1.95;;;;;;;10.71;87.35;97413.20;1806642;77;21082;-79
2022/11/19 00:08:41;;;;;;;4.45;2.12;;;;;;;10.69;87.14;97429.33;1801859;78;21131;-80
2022/11/19 00:11:15;;;;;;;2.98;1.77;;;;;;;10.68;87.39;97431.53;1827573;78;21590;-79
2022/11/19 00:13:43;;;;;;;3.70;2.00;;;;;;;10.68;87.36;97432.83;1801033;77;21003;-78
2022/11/19 00:16:13;;;;;;;3.83;2.33;;;;;;;10.57;86.53;97435.17;1807571;78;21533;-77
2022/11/19 00:18:40;;;;;;;5.10;2.35;;;;;;;10.59;87.02;97437.23;1811871;77;21019;-78
2022/11/19 00:21:12;;;;;;;3.77;2.10;;;;;;;10.53;86.64;97450.91;1805162;78;20987;-79
2022/11/19 00:23:39;;;;;;;4.62;2.47;;;;;;;10.64;86.59;97465.10;1823652;78;21007;-79
2022/11/19 00:26:09;;;;;;;3.80;2.30;;;;;;;10.57;87.36;97471.55;1810346;78;21071;-79
2022/11/19 00:28:37;;;;;;;3.92;2.20;;;;;;;10.58;87.71;97472.75;1833377;78;20980;-80
2022/11/19 00:31:07;;;;;;;4.00;2.40;;;;;;;10.54;87.81;97483.78;1810969;78;21058;-79
2022/11/19 00:33:34;;;;;;;4.45;2.47;;;;;;;10.53;87.02;97491.18;1800591;77;21015;-80
2022/11/19 00:36:03;;;;;;;5.58;2.47;;;;;;;10.55;87.44;97497.14;1766445;79;20939;-80
2022/11/19 00:38:30;;;;;;;3.25;2.22;;;;;;;10.53;87.46;97500.27;1804781;76;20931;-80
2022/11/19 00:40:57;;;;;;;4.33;2.30;;;;;;;10.50;87.61;97508.24;1808377;78;21014;-79
2022/11/19 00:46:09;;;;;;;5.35;2.05;;;;;;;10.38;87.85;97517.92;1810793;77;20980;-79
2022/11/19 00:48:37;;;;;;;2.83;1.60;;;;;;;10.42;87.51;97544.13;1816901;78;20952;-79
2022/11/19 00:51:06;;;;;;;2.95;1.50;;;;;;;10.36;86.94;97550.92;1773374;80;21030;-79
2022/11/19 00:53:33;;;;;;;3.27;1.92;;;;;;;10.37;87.06;97546.59;1814834;78;20967;-78
2022/11/19 00:56:02;;;;;;;1.77;1.17;;;;;;;10.35;87.04;97564.38;1805614;78;21022;-80
2022/11/19 00:58:29;;;;;;;2.08;1.20;;;;;;;10.35;86.15;97563.08;1806254;77;21019;-80
2022/11/19 01:00:56;;;;;;;2.33;1.30;;;;;;;10.23;86.56;97574.50;1822686;78;20916;-80
2022/11/19 01:03:23;;;;;;;1.95;1.15;;;;;;;10.22;86.72;97591.81;1818506;78;20999;-80
2022/11/19 01:05:50;;;;;;;1.90;1.30;;;;;;;10.11;87.22;97597.53;1822174;78;21468;-82
2022/11/19 01:08:17;;;;;;;2.37;1.25;;;;;;;10.13;87.25;97597.00;1811327;78;21443;-80
2022/11/19 01:10:45;;;;;;;2.10;1.40;;;;;;;10.07;87.11;97607.68;1800494;78;20990;-79
2022/11/19 01:15:56;;;;;;;1.62;1.10;;;;;;;9.96;86.29;97621.61;1820731;76;20996;-80
2022/11/19 01:18:23;;;;;;;2.85;1.22;;;;;;;9.92;86.30;97617.47;1823734;78;20952;-80
2022/11/19 01:20:49;;;;;;;1.37;1.00;;;;;;;9.91;86.48;97628.78;1802794;77;21002;-78
2022/11/19 01:23:16;;;;;;;2.98;1.20;;;;;;;9.85;86.40;97631.20;1780402;78;21510;-79
2022/11/19 01:25:43;;;;;;;2.10;1.20;;;;;;;9.76;86.59;97644.58;1807093;78;20963;-78
2022/11/19 01:28:09;;;;;;;2.17;1.50;;;;;;;9.73;86.99;97650.76;1780791;78;20983;-79
2022/11/19 01:30:40;;;;;;;1.50;1.00;;;;;;;9.72;87.09;97668.52;1795746;78;22433;-80
2022/11/19 01:33:08;;;;;;;1.32;1.00;;;;;;;9.66;86.85;97663.61;1803988;78;21063;-79
2022/11/19 01:35:35;;;;;;;1.47;0.95;;;;;;;9.67;87.19;97670.93;1813143;78;20980;-79
2022/11/19 01:38:03;;;;;;;1.67;1.00;;;;;;;9.70;87.73;97681.19;1806026;79;20956;-79
2022/11/19 01:40:30;;;;;;;1.40;1.00;;;;;;;9.66;87.88;97698.64;1789708;78;21484;-79
2022/11/19 01:42:57;;;;;;;1.40;1.10;;;;;;;9.67;88.07;97704.23;1790569;78;20948;-79
2022/11/19 01:45:38;;;;;;;1.07;0.80;;;;;;;9.66;87.72;97706.42;1804964;79;20948;-78
2022/11/19 01:48:15;;;;;;;1.10;1.00;;;;;;;9.70;88.24;97720.11;1820470;79;20972;-79
2022/11/19 01:50:53;;;;;;;1.50;0.90;;;;;;;9.67;87.94;97730.19;1798913;78;20976;-79
2022/11/19 01:53:24;;;;;;;1.90;1.00;;;;;;;9.70;88.17;97737.81;1789062;79;20940;-79
2022/11/19 01:55:52;;;;;;;1.00;0.90;;;;;;;9.69;87.74;97745.23;1791025;78;20947;-79
2022/11/19 01:58:22;;;;;;;1.00;0.70;;;;;;;9.68;87.54;97748.72;1821332;78;21067;-79
2022/11/19 02:00:49;;;;;;;1.05;0.95;;;;;;;9.69;87.55;97763.86;1798198;78;20948;-78
2022/11/19 02:03:17;;;;;;;1.00;0.90;;;;;;;9.66;87.14;97770.00;1796739;78;20971;-79
2022/11/19 02:05:45;;;;;;;1.00;0.70;;;;;;;9.61;86.88;97779.75;1777310;78;20951;-79
2022/11/19 02:08:42;;;;;;;0.72;0.70;;;;;;;9.63;87.13;97783.13;1791542;78;20980;-79
2022/11/19 02:11:23;;;;;;;0.78;0.78;;;;;;;9.62;87.44;97801.34;1779298;78;21902;-79
2022/11/19 02:14:17;;;;;;;1.72;0.90;;;;;;;9.58;87.51;97812.30;1830581;78;21004;-79
2022/11/19 02:16:55;;;;;;;0.68;0.68;;;;;;;9.57;87.69;97826.20;1799875;77;21472;-78
2022/11/19 02:19:56;;;;;;;2.35;0.88;;;;;;;9.57;88.05;97843.06;1809695;79;20941;-80
2022/11/19 02:22:43;;;;;;;0.60;0.60;;;;;;;9.56;87.98;97843.95;1806586;78;20992;-78
2022/11/19 02:25:50;;;;;;;1.65;0.70;;;;;;;9.54;87.59;97860.88;1771688;79;20987;-79
2022/11/19 02:28:49;;;;;;;0.50;0.50;;;;;;;9.53;87.29;97867.44;1792543;78;20984;-79
2022/11/19 02:31:26;;;;;;;0.60;0.50;;;;;;;9.51;82.12;97874.41;1800596;78;21227;-79
2022/11/19 02:34:00;;;;;;;2.33;1.52;;;;;;;9.54;83.58;97876.44;1809737;79;21472;-79
2022/11/19 02:37:02;;;;;;;0.68;0.68;;;;;;;9.58;85.36;97885.41;1796898;78;21411;-80
2022/11/19 02:39:38;;;;;;;0.70;0.60;;;;;;;9.53;84.31;97907.66;1809023;77;20928;-80
2022/11/19 02:42:13;;;;;;;0.50;0.50;;;;;;;9.51;83.88;97904.25;1813811;78;20991;-79
2022/11/19 02:45:01;;;;;;;1.67;0.85;;;;;;;9.47;83.75;97922.14;1813092;78;21244;-80
2022/11/19 02:47:41;;;;;;;0.55;0.53;;;;;;;9.43;84.23;97915.39;1812161;77;20956;-80
2022/11/19 02:50:19;;;;;;;0.50;0.50;;;;;;;9.36;80.20;97926.01;1815946;78;21062;-81
2022/11/19 02:52:47;;;;;;;0.50;0.50;;;;;;;9.31;79.59;97928.37;1822626;76;21023;-78
2022/11/19 02:55:16;;;;;;;0.45;0.45;;;;;;;9.30;81.34;97928.00;1820600;76;21090;-78
2022/11/19 02:58:06;;;;;;;1.02;0.70;;;;;;;9.25;81.61;97923.00;1822811;78;20975;-79
2022/11/19 03:06:16;;;;;;;0.53;0.53;;;;;;;9.06;82.31;97953.95;1826251;78;21507;-78
2022/11/19 03:08:43;;;;;;;0.50;0.50;;;;;;;9.01;81.40;97980.48;1786561;78;21003;-79
2022/11/19 03:11:24;;;;;;;0.50;0.50;;;;;;;8.99;79.36;97990.53;1807465;77;21023;-79
2022/11/19 03:17:23;;;;;;;0.72;0.60;;;;;;;8.90;79.96;98008.11;1810136;78;21526;-78
2022/11/19 03:20:01;;;;;;;0.50;0.50;;;;;;;8.83;79.26;98014.39;1777106;78;21025;-79
2022/11/19 03:22:36;;;;;;;0.60;0.60;;;;;;;8.79;81.27;98006.33;1807347;78;21054;-80
2022/11/19 03:25:19;;;;;;;0.62;0.62;;;;;;;8.72;80.82;98019.13;1813523;78;20952;-79
2022/11/19 03:27:49;;;;;;;0.42;0.40;;;;;;;8.62;80.13;98040.63;1782579;78;21003;-78
2022/11/19 03:30:18;;;;;;;0.50;0.50;;;;;;;8.49;80.47;98046.64;1815192;78;21054;-79
2022/11/19 03:32:56;;;;;;;0.60;0.60;;;;;;;8.43;79.80;98055.08;1765321;80;20951;-78
2022/11/19 03:35:28;;;;;;;0.40;0.40;;;;;;;8.38;79.97;98060.84;1809282;78;20970;-78
2022/11/19 03:37:59;;;;;;;0.40;0.40;;;;;;;8.30;80.08;98066.27;1799407;78;21011;-79
2022/11/19 03:40:29;;;;;;;0.53;0.53;;;;;;;8.26;80.46;98089.27;1784053;78;20970;-79
2022/11/19 03:42:58;;;;;;;1.20;0.70;;;;;;;8.23;80.63;98088.91;1794778;79;20963;-79
2022/11/19 03:45:29;;;;;;;0.50;0.50;;;;;;;8.20;80.94;98091.61;1798494;78;21004;-79
2022/11/19 03:47:58;;;;;;;0.50;0.50;;;;;;;8.17;80.72;98089.09;1789977;79;21483;-79
2022/11/19 03:50:48;;;;;;;0.62;0.60;;;;;;;8.16;81.02;98093.44;1767416;79;20980;-79
2022/11/19 03:53:17;;;;;;;0.50;0.50;;;;;;;8.08;80.18;98104.94;1810639;78;20980;-79
2022/11/19 03:55:58;;;;;;;0.50;0.50;;;;;;;8.04;80.16;98102.89;1803793;79;21115;-78
2022/11/19 03:58:26;;;;;;;1.00;0.80;;;;;;;7.96;80.28;98108.30;1807876;78;21421;-80
2022/11/19 04:00:53;;;;;;;0.57;0.57;;;;;;;7.91;80.34;98126.98;1811287;78;21094;-79
2022/11/19 04:03:20;;;;;;;0.65;0.65;;;;;;;7.88;80.67;98129.67;1788125;79;21046;-78
2022/11/19 04:05:47;;;;;;;0.47;0.47;;;;;;;7.85;81.22;98144.44;1793261;78;21516;-79
2022/11/19 04:08:13;;;;;;;2.05;0.90;;;;;;;7.82;81.79;98155.73;1776083;80;21022;-78
2022/11/19 04:10:40;;;;;;;2.85;1.35;;;;;;;7.80;82.48;98156.23;1818236;78;20992;-79
2022/11/19 04:13:06;;;;;;;5.03;1.02;;;;;;;7.81;83.23;98162.24;1797649;77;21447;-79
2022/11/19 04:15:32;;;;;;;1.17;0.70;;;;;;;7.82;83.28;98177.73;1805551;78;21003;-79
2022/11/19 04:17:59;;;;;;;1.27;0.80;;;;;;;7.86;83.66;98181.05;1793788;78;21003;-78
2022/11/19 04:20:25;;;;;;;0.70;0.70;;;;;;;7.84;83.76;98182.42;1788147;78;20963;-79
2022/11/19 04:22:52;;;;;;;1.67;0.93;;;;;;;7.85;83.72;98177.63;1802003;78;22099;-79
2022/11/19 04:25:19;;;;;;;0.60;0.60;;;;;;;7.85;83.49;98173.75;1797497;79;21384;-79
2022/11/19 04:27:46;;;;;;;1.00;0.90;;;;;;;7.88;83.79;98176.26;1807548;79;21062;-80
2022/11/19 04:30:14;;;;;;;1.47;0.95;;;;;;;7.88;83.58;98180.59;1797425;78;21047;-78
2022/11/19 04:32:42;;;;;;;4.53;0.95;;;;;;;7.86;83.43;98191.41;1825010;78;21042;-79
2022/11/19 04:35:08;;;;;;;1.82;0.93;;;;;;;7.86;83.52;98193.99;1799721;78;21020;-80
2022/11/19 04:37:35;;;;;;;0.88;0.78;;;;;;;7.82;83.23;98207.48;1766872;80;21018;-79
2022/11/19 04:40:02;;;;;;;0.75;0.53;;;;;;;7.78;83.75;98204.59;1734117;80;21013;-79
2022/11/19 04:42:28;;;;;;;0.85;0.75;;;;;;;7.86;83.58;98214.70;1761086;81;21041;-79
2022/11/19 04:44:55;;;;;;;1.37;1.00;;;;;;;7.74;84.57;98210.73;1749485;81;21030;-79
2022/11/19 04:47:21;;;;;;;0.85;0.72;;;;;;;7.71;85.23;98223.30;1788442;79;21051;-78
2022/11/19 04:49:47;;;;;;;1.37;0.90;;;;;;;7.69;85.84;98223.78;1779721;79;21569;-79
2022/11/19 04:52:14;;;;;;;1.05;0.90;;;;;;;7.64;86.70;98235.14;1796055;79;21031;-78
2022/11/19 04:54:40;;;;;;;0.93;0.88;;;;;;;7.58;87.36;98225.83;1784099;79;20980;-79
2022/11/19 04:57:06;;;;;;;1.55;1.10;;;;;;;7.51;88.15;98223.00;1789619;79;21039;-78
2022/11/19 04:59:33;;;;;;;2.05;1.22;;;;;;;7.47;88.42;98231.72;1780029;79;20967;-78
2022/11/19 05:02:00;;;;;;;2.30;1.17;;;;;;;7.51;87.83;98233.34;1777859;79;21007;-79
2022/11/19 05:04:26;;;;;;;1.10;1.00;;;;;;;7.46;88.40;98238.64;1779996;79;21011;-79
2022/11/19 05:06:53;;;;;;;1.47;0.90;;;;;;;7.43;88.41;98253.39;1780058;79;21026;-79
2022/11/19 05:09:19;;;;;;;1.55;1.00;;;;;;;7.44;88.56;98264.12;1783051;79;21436;-79
2022/11/19 05:11:47;;;;;;;3.45;1.02;;;;;;;7.43;88.64;98268.45;1752152;81;22303;-76
2022/11/19 05:14:13;;;;;;;1.67;1.20;;;;;;;7.40;88.91;98275.43;1772795;79;21087;-78
2022/11/19 05:16:40;;;;;;;1.70;1.10;;;;;;;7.29;89.39;98280.88;1788603;79;21091;-77
2022/11/19 05:19:06;;;;;;;1.10;0.98;;;;;;;7.29;89.32;98292.52;1796321;79;21026;-77
2022/11/19 05:21:33;;;;;;;2.20;1.30;;;;;;;7.29;89.10;98295.11;1767117;79;21090;-77
2022/11/19 05:24:00;;;;;;;1.75;1.10;;;;;;;7.27;89.64;98305.48;1771733;79;21038;-77
2022/11/19 05:26:26;;;;;;;1.12;0.98;;;;;;;7.24;89.77;98312.45;1764139;79;21042;-76
2022/11/19 05:28:52;;;;;;;1.35;1.05;;;;;;;7.27;89.57;98317.56;1789727;79;21030;-77
2022/11/19 05:31:19;;;;;;;1.15;1.00;;;;;;;7.23;89.84;98320.66;1769156;79;21590;-77
2022/11/19 05:33:45;;;;;;;1.80;1.02;;;;;;;7.19;90.05;98329.38;1758606;79;20978;-76
2022/11/19 05:36:12;;;;;;;2.00;1.20;;;;;;;7.24;89.89;98340.47;1767143;79;21003;-78
2022/11/19 05:38:39;;;;;;;1.72;1.10;;;;;;;7.16;90.27;98340.64;1795953;78;20976;-76
2022/11/19 05:41:06;;;;;;;2.47;1.27;;;;;;;7.16;89.83;98348.82;1806735;78;20996;-80
2022/11/19 05:43:33;;;;;;;2.20;1.20;;;;;;;7.17;89.81;98357.00;1801287;79;21558;-78
2022/11/19 05:46:02;;;;;;;2.00;1.20;;;;;;;7.17;89.60;98364.30;1790440;78;20983;-79
2022/11/19 05:48:30;;;;;;;4.25;2.47;;;;;;;7.11;90.05;98361.86;1801087;79;20988;-80
2022/11/19 05:50:56;;;;;;;2.37;1.57;;;;;;;7.10;89.76;98371.81;1812223;78;20956;-78
2022/11/19 05:53:23;;;;;;;2.80;1.85;;;;;;;7.14;89.24;98376.44;1798837;79;21522;-78
2022/11/19 05:55:49;;;;;;;2.10;1.40;;;;;;;7.08;89.98;98381.75;1791913;79;20963;-80
2022/11/19 05:58:15;;;;;;;7.95;1.37;;;;;;;7.04;90.52;98392.59;1810997;79;21042;-82
2022/11/19 06:00:42;;;;;;;2.08;1.27;;;;;;;7.08;90.09;98399.84;1810392;78;21003;-83
2022/11/19 06:03:09;;;;;;;5.65;1.98;;;;;;;7.09;90.33;98410.61;1803734;78;21484;-80
2022/11/19 06:05:36;;;;;;;3.20;1.60;;;;;;;7.09;90.26;98419.20;1795329;79;20953;-79
2022/11/19 06:08:03;;;;;;;2.10;1.30;;;;;;;7.12;90.17;98419.16;1802367;78;21007;-78
2022/11/19 06:10:29;;;;;;;1.67;1.22;;;;;;;7.17;89.96;98420.34;1808776;78;20986;-79
2022/11/19 06:12:55;;;;;;;2.22;1.10;;;;;;;7.20;89.96;98425.88;1803936;79;21416;-78
2022/11/19 06:15:22;;;;;;;1.92;1.12;;;;;;;7.21;89.76;98428.42;1800636;78;21088;-79
2022/11/19 06:17:48;;;;;;;2.40;1.40;;;;;;;7.24;89.88;98425.79;1812665;79;21078;-79
2022/11/19 06:20:16;;;;;;;2.85;1.17;;;;;;;7.29;89.72;98425.22;1798474;78;21016;-79
2022/11/19 06:22:42;;;;;;;4.95;1.52;;;;;;;7.34;89.51;98424.69;1817892;79;21654;-79
2022/11/19 06:25:09;;;;;;;3.08;1.90;;;;;;;7.36;89.69;98437.14;1804421;78;20992;-78
2022/11/19 06:27:35;;;;;;;2.00;1.35;;;;;;;7.37;89.73;98442.70;1830343;78;21962;-80
2022/11/19 06:30:03;;;;;;;1.77;1.30;;;;;;;7.40;89.76;98453.86;1794525;78;21074;-79
2022/11/19 06:32:29;;;;;;;2.70;1.25;;;;;;;7.40;89.79;98457.33;1789606;79;20999;-79
2022/11/19 06:34:56;;;;;;;2.75;1.70;;;;;;;7.42;89.82;98467.61;1795410;78;20987;-79
2022/11/19 06:37:23;;;;;;;2.37;1.40;;;;;;;7.49;89.78;98480.38;1794556;79;20980;-79
2022/11/19 06:39:49;;;;;;;1.87;1.30;;;;;;;7.48;89.85;98481.70;1772509;79;20990;-79
2022/11/19 06:45:08;;;;;;;3.15;1.60;;;;;;;7.51;89.90;98482.94;1779133;80;21021;-79
2022/11/19 06:47:36;;;;;;;2.40;1.40;;;;;;;7.51;89.85;98494.57;1801396;79;20992;-79
2022/11/19 06:50:04;;;;;;;2.40;1.50;;;;;;;7.54;90.01;98503.12;1790129;79;20979;-77
2022/11/19 06:52:31;;;;;;;3.30;1.60;;;;;;;7.57;90.00;98507.37;1757653;80;20983;-77
2022/11/19 06:54:57;;;;;;;2.83;1.62;;;;;;;7.61;90.01;98507.70;1751458;81;20964;-77
2022/11/19 06:57:24;;;;;;;3.65;1.70;;;;;;;7.62;89.80;98510.72;1785175;79;20943;-77
2022/11/19 06:59:50;;;;;;;3.60;1.75;;;;;;;7.67;89.85;98514.48;1799286;79;20968;-78
2022/11/19 07:02:17;;;;;;;4.40;1.70;;;;;;;7.73;89.86;98511.75;1743533;81;20975;-78
2022/11/19 07:04:43;;;;;;;2.87;1.50;;;;;;;7.75;89.63;98517.74;1757307;81;20936;-77
2022/11/19 07:07:10;;;;;;;3.12;1.65;;;;;;;7.80;89.44;98515.03;1778580;80;20960;-77
2022/11/19 07:09:36;;;;;;;3.50;1.70;;;;;;;7.80;89.34;98530.56;1789185;80;20983;-78
2022/11/19 07:12:03;;;;;;;6.53;2.20;;;;;;;7.79;89.35;98525.84;1794059;79;20955;-77
2022/11/19 07:14:30;;;;;;;4.47;2.30;;;;;;;7.79;89.37;98529.72;1786617;79;21503;-79
2022/11/19 07:16:56;;;;;;;5.70;2.15;;;;;;;7.80;89.42;98532.73;1785728;79;20959;-77
2022/11/19 07:19:23;;;;;;;7.17;1.98;;;;;;;7.81;89.35;98530.54;1797669;79;20983;-78
2022/11/19 07:21:49;;;;;;;4.70;2.47;;;;;;;7.84;89.22;98541.25;1799671;79;21027;-76
2022/11/19 07:24:17;;;;;;;4.22;2.10;;;;;;;7.87;89.08;98545.92;1799125;79;21063;-76
2022/11/19 07:26:43;;;;;;;4.50;1.80;;;;;;;7.87;89.15;98548.52;1782157;79;20968;-78
2022/11/19 07:29:13;;;;;;;6.97;2.17;;;;;;;7.90;89.14;98564.44;1789716;79;20954;-77
2022/11/19 07:31:40;;;;;;;4.45;2.02;;;;;;;7.90;88.84;98555.38;1791828;79;21042;-76
2022/11/19 07:34:09;;;;;;;2.83;1.57;;;;;;;7.97;89.11;98558.21;1795351;79;20976;-77
2022/11/19 07:36:36;;;;;;;2.20;1.37;;;;;;;8.00;88.64;98561.16;1790269;78;21562;-77
2022/11/19 07:39:04;;;;;;;2.92;1.67;;;;;;;8.08;88.99;98567.88;1814162;77;21031;-77
2022/11/19 07:44:15;;;;;;;3.95;1.87;;;;;;;8.23;87.78;98587.83;1808394;78;20963;-77
2022/11/19 07:46:42;;;;;;;4.67;1.85;;;;;;;8.30;87.28;98595.41;1801700;77;21010;-80
2022/11/19 07:49:08;;;;;;;2.45;1.35;;;;;;;8.40;87.00;98598.64;1807014;78;21006;-76
2022/11/19 07:51:35;;;;;;;2.95;1.20;;;;;;;8.39;86.00;98605.98;1777527;78;21034;-77
2022/11/19 07:54:02;;;;;;;1.42;1.05;;;;;;;8.44;85.83;98621.02;1809318;78;20956;-77
2022/11/19 07:56:28;;;;;;;4.03;1.30;;;;;;;8.47;85.87;98621.38;1823413;78;21086;-77
2022/11/19 07:58:55;;;;;;;5.47;1.30;;;;;;;8.47;85.64;98618.79;1817337;78;20964;-78
2022/11/19 08:01:23;;;;;;;2.40;1.35;;;;;;;8.48;84.65;98614.87;1802273;77;21047;-75
2022/11/19 08:03:51;;;;;;;1.22;0.95;;;;;;;8.57;85.59;98621.56;1770995;80;21003;-78
2022/11/19 08:06:19;;;;;;;2.75;1.27;;;;;;;8.61;84.96;98618.00;1802775;78;20963;-76
2022/11/19 08:08:47;;;;;;;2.08;1.40;;;;;;;8.61;85.14;98623.64;1818760;78;20934;-77
2022/11/19 08:11:15;;;;;;;2.83;1.60;;;;;;;8.69;85.13;98619.11;1795084;78;20992;-78
2022/11/19 08:13:42;;;;;;;2.75;1.65;;;;;;;8.79;85.59;98621.87;1803274;78;20964;-79
2022/11/19 08:16:12;;;;;;;3.12;1.60;;;;;;;8.79;84.45;98624.92;1796232;78;20979;-77
2022/11/19 08:18:39;;;;;;;3.08;1.70;;;;;;;8.77;84.04;98623.66;1799941;78;21508;-79
2022/11/19 08:21:10;;;;;;;3.20;1.67;;;;;;;8.71;83.93;98612.15;1780364;79;20992;-79
2022/11/19 08:23:38;;;;;;;2.12;1.40;;;;;;;8.63;83.48;98615.38;1797011;78;20971;-79
2022/11/19 08:26:08;;;;;;;3.47;1.98;;;;;;;8.55;83.97;98620.33;1801288;78;20983;-77
2022/11/19 08:28:34;;;;;;;3.60;1.98;;;;;;;8.57;84.12;98617.67;1794079;78;21086;-76
2022/11/19 08:31:08;;;;;;;3.72;1.70;;;;;;;8.49;84.39;98620.90;1799229;79;21070;-77
2022/11/19 08:33:35;;;;;;;2.62;1.45;;;;;;;8.45;84.58;98628.34;1794998;78;20945;-76
2022/11/19 08:36:02;;;;;;;3.72;1.82;;;;;;;8.44;84.33;98628.80;1797870;78;20968;-77
2022/11/19 08:38:28;;;;;;;2.42;1.67;;;;;;;8.44;84.72;98628.80;1809987;78;21008;-77
2022/11/19 08:42:58;;;;;;;5.00;1.67;;;;;;;8.43;84.46;98623.64;1793683;79;20976;-77
2022/11/19 08:43:23;;;;;;;4.95;2.37;;;;;;;8.44;84.59;98627.50;1794373;78;20964;-77
2022/11/19 08:45:53;;;;;;;3.72;1.85;;;;;;;8.34;84.65;98625.98;1791844;78;20995;-79
2022/11/19 08:48:19;;;;;;;3.67;1.90;;;;;;;8.32;84.76;98633.78;1786165;79;21008;-78
2022/11/19 08:50:45;;;;;;;3.65;1.70;;;;;;;8.30;84.59;98638.15;1806080;79;21016;-78
2022/11/19 08:53:12;;;;;;;5.55;2.10;;;;;;;8.27;84.66;98645.13;1783057;79;21040;-79
2022/11/19 08:55:38;;;;;;;2.62;1.60;;;;;;;8.24;84.60;98644.77;1800900;77;21039;-77
2022/11/19 08:58:07;;;;;;;2.98;1.50;;;;;;;8.20;84.81;98640.55;1782703;80;21003;-78
2022/11/19 09:00:36;;;;;;;3.55;1.72;;;;;;;8.25;84.77;98649.05;1783225;80;20982;-79
2022/11/19 09:03:03;;;;;;;2.37;1.50;;;;;;;8.25;84.91;98647.75;1778844;78;21261;-79
2022/11/19 09:05:30;;;;;;;2.47;1.52;;;;;;;8.26;84.81;98636.97;1795643;78;21042;-79
2022/11/19 09:07:56;;;;;;;2.42;1.50;;;;;;;8.32;85.15;98634.23;1774838;78;20955;-78
2022/11/19 09:10:22;;;;;;;3.33;1.40;;;;;;;8.38;85.47;98644.91;1796254;78;21910;-79
2022/11/19 09:12:49;;;;;;;7.97;2.10;;;;;;;8.45;85.48;98641.29;1774039;78;21010;-78
2022/11/19 09:15:16;;;;;;;3.47;1.80;;;;;;;8.55;85.60;98648.83;1782024;78;20988;-80
2022/11/19 09:17:42;;;;;;;11.45;2.08;;;;;;;8.61;85.31;98648.25;1790014;78;20947;-79
2022/11/19 09:20:09;;;;;;;3.02;1.67;;;;;;;8.67;85.26;98649.40;1796299;78;21280;-78
2022/11/19 09:22:36;;;;;;;3.40;1.80;;;;;;;8.74;84.30;98656.98;1791508;78;21062;-80
2022/11/19 09:25:04;;;;;;;4.22;2.08;;;;;;;8.85;83.94;98653.27;1779705;78;20991;-79
2022/11/19 09:27:30;;;;;;;4.08;2.02;;;;;;;8.80;83.44;98652.55;1791073;78;20991;-79
2022/11/19 09:29:56;;;;;;;3.55;1.80;;;;;;;8.88;83.66;98648.03;1775562;78;21129;-79
2022/11/19 09:32:23;;;;;;;2.72;1.55;;;;;;;8.89;83.55;98653.59;1795468;78;21603;-78
2022/11/19 09:34:49;;;;;;;2.70;1.80;;;;;;;8.98;84.36;98665.05;1796828;78;21015;-80
2022/11/19 09:37:16;;;;;;;3.65;1.92;;;;;;;9.05;83.50;98669.62;1798620;78;21070;-79
2022/11/19 09:39:42;;;;;;;3.55;2.12;;;;;;;9.19;83.76;98666.66;1769626;78;21090;-79
2022/11/19 09:42:15;;;;;;;3.65;1.87;;;;;;;9.27;83.41;98672.50;1786591;78;21007;-79
2022/11/19 09:45:21;;;;;;;4.78;2.33;;;;;;;9.34;83.46;98676.19;1783830;79;21054;-79
2022/11/19 09:48:05;;;;;;;6.20;2.05;;;;;;;9.43;83.09;98687.21;1792414;78;21102;-78
2022/11/19 09:50:53;;;;;;;4.25;2.25;;;;;;;9.50;82.93;98681.81;1786567;80;20963;-78
2022/11/19 09:53:22;;;;;;;3.92;2.40;;;;;;;9.65;83.33;98677.09;1775883;78;20987;-78
2022/11/19 09:55:52;;;;;;;7.92;2.70;;;;;;;9.66;82.30;98673.16;1792176;78;21421;-77
2022/11/19 09:58:33;;;;;;;5.22;2.15;;;;;;;9.69;81.39;98666.59;1811716;79;20971;-77
2022/11/19 10:01:00;;;;;;;4.80;2.42;;;;;;;9.80;82.37;98669.33;1796461;78;20991;-78
2022/11/19 10:03:27;;;;;;;4.83;2.50;;;;;;;9.89;81.69;98670.38;1818101;79;21491;-80
2022/11/19 10:06:19;;;;;;;4.87;2.35;;;;;;;10.02;82.90;98673.45;1820519;79;21036;-80
2022/11/19 10:09:15;;;;;;;4.33;2.52;;;;;;;10.06;81.89;98684.14;1790253;79;21054;-78
2022/11/19 10:11:53;;;;;;;7.35;2.50;;;;;;;10.12;82.19;98686.56;1792638;78;21027;-79
2022/11/19 10:14:48;;;;;;;4.87;2.42;;;;;;;10.18;82.40;98690.73;1790030;79;21591;-79
2022/11/19 10:17:44;;;;;;;5.17;2.90;;;;;;;10.20;80.95;98694.12;1789450;78;20995;-78
2022/11/19 10:20:40;;;;;;;4.45;2.00;;;;;;;10.22;81.95;98693.63;1793035;78;21114;-78
2022/11/19 10:23:44;;;;;;;7.08;2.02;;;;;;;10.28;81.81;98692.98;1789257;78;21986;-80
2022/11/19 10:26:15;;;;;;;5.35;2.60;;;;;;;10.15;80.91;98699.47;1795236;79;21027;-80
2022/11/19 10:28:54;;;;;;;10.93;3.00;;;;;;;10.19;81.89;98698.94;1789645;78;20940;-79
2022/11/19 10:31:29;;;;;;;4.37;2.50;;;;;;;10.21;81.46;98710.13;1777399;80;21039;-79
2022/11/19 10:34:04;;;;;;;5.87;2.72;;;;;;;10.24;81.73;98700.47;1828976;78;20951;-80
2022/11/19 10:36:44;;;;;;;5.42;2.67;;;;;;;10.21;81.26;98702.34;1822174;78;20972;-78
2022/11/19 10:39:34;;;;;;;5.22;2.75;;;;;;;10.07;80.00;98698.84;1814811;78;21914;-79
2022/11/19 10:42:29;;;;;;;7.15;3.05;;;;;;;10.08;80.41;98700.08;1817619;77;20987;-79
2022/11/19 10:45:16;;;;;;;10.15;3.20;;;;;;;10.05;80.20;98709.27;1782577;78;20952;-79
2022/11/19 10:47:57;;;;;;;5.20;3.10;;;;;;;10.08;80.96;98704.43;1830635;78;21027;-78
2022/11/19 10:50:25;;;;;;;6.78;3.40;;;;;;;10.12;80.50;98694.35;1819648;78;21356;-80
2022/11/19 10:53:06;;;;;;;7.40;3.60;;;;;;;10.07;80.82;98684.56;1822176;76;21066;-79
2022/11/19 10:55:46;;;;;;;5.55;2.90;;;;;;;10.04;79.85;98678.98;1800726;78;20994;-80
2022/11/19 10:58:38;;;;;;;7.28;3.12;;;;;;;10.13;80.48;98689.12;1786323;78;21566;-80
2022/11/19 11:01:13;;;;;;;5.67;2.95;;;;;;;10.16;80.02;98695.50;1811162;78;21047;-80
2022/11/19 11:04:06;;;;;;;5.70;2.98;;;;;;;10.24;80.23;98687.48;1795239;79;20967;-79
2022/11/19 11:07:00;;;;;;;5.15;2.37;;;;;;;10.25;80.25;98684.00;1812290;78;20959;-78
2022/11/19 11:09:39;;;;;;;5.78;3.15;;;;;;;10.31;80.92;98677.81;1805334;78;20933;-80
2022/11/19 11:15:20;;;;;;;4.78;2.42;;;;;;;10.48;80.81;98672.07;1809703;79;21002;-79
2022/11/19 11:18:02;;;;;;;5.58;2.90;;;;;;;10.56;79.16;98668.78;1806925;79;20954;-79
2022/11/19 11:20:30;;;;;;;5.05;2.47;;;;;;;10.67;78.96;98672.35;1788259;79;20968;-81
2022/11/19 11:23:19;;;;;;;7.72;3.50;;;;;;;10.77;79.05;98668.55;1767695;79;21003;-80
2022/11/19 11:25:53;;;;;;;6.47;3.17;;;;;;;10.79;76.73;98669.34;1805391;79;20955;-80
2022/11/19 11:28:22;;;;;;;8.63;3.35;;;;;;;10.80;76.58;98666.29;1794346;79;20972;-80
2022/11/19 11:31:09;;;;;;;12.78;4.12;;;;;;;10.84;77.10;98670.06;1811979;78;21083;-80
2022/11/19 11:33:40;;;;;;;6.75;3.30;;;;;;;10.90;78.00;98668.98;1800797;78;21742;-79
2022/11/19 11:36:14;;;;;;;7.60;3.45;;;;;;;10.84;75.88;98659.66;1792789;78;21524;-79
2022/11/19 11:38:43;;;;;;;;;;;;;;;10.86;77.09;98666.09;1794051;78;21504;-79
2022/11/19 11:41:17;;;;;;;4.72;2.70;;;;;;;10.85;74.81;98663.10;1803900;79;20148;-80
2022/11/19 11:44:00;;;;;;;4.30;2.35;;;;;;;10.84;76.03;98676.56;1790709;79;21463;-79
2022/11/19 11:46:43;;;;;;;5.30;2.52;;;;;;;10.81;74.78;98680.55;1801538;79;21849;-80
2022/11/19 11:49:36;;;;;;;6.40;2.77;;;;;;;10.81;75.89;98676.65;1812397;78;20936;-80
2022/11/19 11:52:26;;;;;;;5.55;2.30;;;;;;;10.77;74.61;98683.31;1789571;79;21004;-80
2022/11/19 11:55:01;;;;;;;5.12;2.60;;;;;;;10.74;74.03;98691.61;1793002;79;21020;-79
2022/11/19 11:57:39;;;;;;;4.15;2.20;;;;;;;10.75;74.93;98694.59;1796700;78;22269;-80
2022/11/19 12:00:38;;;;;;;4.45;2.65;;;;;;;10.69;73.25;98698.69;1794922;77;21083;-79
2022/11/19 12:03:20;;;;;;;4.92;2.35;;;;;;;10.73;75.50;98706.80;1790705;80;21066;-78
2022/11/19 12:06:09;;;;;;;4.92;2.90;;;;;;;10.74;75.20;98708.94;1789472;80;20995;-79
2022/11/19 12:08:44;;;;;;;7.28;3.65;;;;;;;10.74;75.55;98708.94;1789035;80;21020;-79
2022/11/19 12:11:22;;;;;;;6.08;3.30;;;;;;;10.77;75.52;98713.21;1810497;78;21000;-79
2022/11/19 12:14:10;;;;;;;7.37;3.42;;;;;;;10.76;75.75;98717.53;1818707;79;21565;-79
2022/11/19 12:17:10;;;;;;;5.92;3.50;;;;;;;10.72;74.99;98722.44;1819014;79;21048;-79
2022/11/19 12:20:03;;;;;;;6.03;3.27;;;;;;;10.65;74.80;98730.05;1818958;79;21020;-79
2022/11/19 12:22:57;;;;;;;8.23;3.55;;;;;;;10.56;74.29;98737.66;1819018;79;21051;-79
2022/11/19 12:25:41;;;;;;;6.35;2.45;;;;;;;10.52;75.15;98740.83;1819860;79;21059;-79